createdAt,value
2018-05-12T00:00:54.530Z,7.80
2018-05-12T00:02:01.258Z,8.90
2018-05-12T00:03:08.218Z,8.10
2018-05-12T00:04:14.919Z,8.70
2018-05-12T00:05:21.662Z,7.80
2018-05-12T00:06:28.472Z,7.30
2018-05-12T00:07:35.168Z,7.50
2018-05-12T00:08:41.938Z,8.10
2018-05-12T00:09:48.646Z,7.50
2018-05-12T00:10:55.430Z,7.40
2018-05-12T00:12:02.147Z,7.20
2018-05-12T00:13:08.891Z,7.70
2018-05-12T00:14:15.682Z,7.50
2018-05-12T00:15:22.390Z,6.70
2018-05-12T00:16:29.137Z,7.40
2018-05-12T00:17:35.854Z,7.10
2018-05-12T00:18:42.550Z,7.30
2018-05-12T00:19:49.266Z,7.40
2018-05-12T00:20:56.087Z,7.10
2018-05-12T00:22:02.803Z,7.70
2018-05-12T00:23:09.535Z,7.90
2018-05-12T00:24:16.249Z,6.90
2018-05-12T00:25:22.995Z,7.30
2018-05-12T00:26:29.814Z,7.30
2018-05-12T00:27:36.519Z,6.60
2018-05-12T00:28:43.236Z,7.50
2018-05-12T00:29:49.935Z,7.90
2018-05-12T00:30:56.690Z,7.30
2018-05-12T00:32:03.384Z,7.60
2018-05-12T00:33:10.195Z,7.10
2018-05-12T00:34:16.890Z,7.20
2018-05-12T00:35:23.591Z,6.80
2018-05-12T00:36:30.323Z,7.20
2018-05-12T00:37:37.030Z,7.00
2018-05-12T00:38:43.735Z,7.50
2018-05-12T00:39:50.432Z,8.10
2018-05-12T00:40:57.255Z,9.00
2018-05-12T00:42:03.964Z,10.50
2018-05-12T00:43:10.718Z,9.80
2018-05-12T00:44:17.439Z,10.00
2018-05-12T00:45:24.141Z,9.40
2018-05-12T00:46:30.999Z,8.90
2018-05-12T00:47:37.735Z,8.90
2018-05-12T00:48:44.447Z,9.10
2018-05-12T00:49:51.170Z,10.00
2018-05-12T00:50:57.907Z,9.70
2018-05-12T00:52:04.730Z,8.70
2018-05-12T00:53:11.431Z,8.80
2018-05-12T00:54:18.155Z,8.70
2018-05-12T00:55:24.870Z,9.00
2018-05-12T00:56:32.003Z,8.40
2018-05-12T00:57:38.703Z,8.50
2018-05-12T00:58:45.425Z,8.50
2018-05-12T00:59:52.134Z,8.30
2018-05-12T01:00:58.938Z,9.90
2018-05-12T01:02:05.686Z,9.30
2018-05-12T01:03:12.480Z,8.50
2018-05-12T01:04:19.183Z,8.10
2018-05-12T01:05:26.019Z,7.80
2018-05-12T01:06:32.758Z,7.50
2018-05-12T01:07:39.715Z,8.50
2018-05-12T01:08:46.486Z,8.50
2018-05-12T01:09:53.194Z,10.00
2018-05-12T01:10:59.957Z,9.70
2018-05-12T01:12:06.671Z,10.00
2018-05-12T01:13:13.398Z,9.10
2018-05-12T01:14:20.507Z,7.90
2018-05-12T01:15:27.332Z,8.20
2018-05-12T01:16:34.055Z,7.80
2018-05-12T01:17:40.784Z,7.90
2018-05-12T01:18:47.630Z,8.40
2018-05-12T01:19:54.436Z,7.30
2018-05-12T01:21:01.207Z,8.40
2018-05-12T01:22:07.955Z,8.00
2018-05-12T01:23:14.690Z,7.90
2018-05-12T01:24:21.527Z,7.90
2018-05-12T01:25:28.279Z,7.90
2018-05-12T01:26:35.050Z,7.30
2018-05-12T01:27:41.759Z,7.60
2018-05-12T01:28:48.511Z,7.50
2018-05-12T01:29:55.304Z,8.20
2018-05-12T01:31:02.133Z,7.60
2018-05-12T01:32:08.903Z,8.00
2018-05-12T01:33:15.750Z,8.10
2018-05-12T01:34:22.558Z,8.00
2018-05-12T01:35:29.299Z,8.90
2018-05-12T01:36:36.328Z,8.20
2018-05-12T01:37:43.083Z,8.20
2018-05-12T01:38:49.835Z,8.00
2018-05-12T01:39:56.567Z,9.30
2018-05-12T01:41:03.350Z,9.10
2018-05-12T01:42:10.102Z,9.30
2018-05-12T01:43:16.826Z,9.10
2018-05-12T01:44:23.880Z,8.20
2018-05-12T01:45:30.615Z,8.40
2018-05-12T01:46:37.351Z,8.00
2018-05-12T01:47:44.110Z,8.90
2018-05-12T01:48:50.818Z,8.30
2018-05-12T01:49:57.621Z,7.60
2018-05-12T01:51:04.347Z,7.60
2018-05-12T01:52:11.096Z,8.40
2018-05-12T01:53:17.847Z,7.40
2018-05-12T01:54:24.579Z,8.30
2018-05-12T01:55:31.391Z,10.00
2018-05-12T01:56:38.149Z,8.50
2018-05-12T01:57:44.908Z,7.40
2018-05-12T01:58:51.659Z,8.40
2018-05-12T01:59:58.486Z,7.30
2018-05-12T02:01:05.283Z,7.00
2018-05-12T02:02:12.063Z,7.30
2018-05-12T02:03:18.807Z,7.30
2018-05-12T02:04:25.574Z,7.70
2018-05-12T02:05:32.346Z,7.80
2018-05-12T02:06:39.078Z,8.40
2018-05-12T02:07:45.851Z,7.40
2018-05-12T02:08:52.672Z,8.30
2018-05-12T02:09:59.395Z,7.20
2018-05-12T02:11:06.147Z,7.50
2018-05-12T02:12:12.862Z,7.30
2018-05-12T02:13:19.673Z,7.70
2018-05-12T02:14:26.447Z,7.80
2018-05-12T02:15:33.179Z,7.60
2018-05-12T02:16:40.019Z,7.80
2018-05-12T02:17:46.754Z,7.60
2018-05-12T02:18:53.547Z,7.60
2018-05-12T02:20:00.274Z,7.70
2018-05-12T02:21:07.058Z,7.90
2018-05-12T02:22:13.782Z,8.20
2018-05-12T02:23:20.539Z,8.60
2018-05-12T02:24:27.294Z,7.70
2018-05-12T02:25:34.147Z,7.60
2018-05-12T02:26:40.930Z,7.80
2018-05-12T02:27:47.764Z,8.10
2018-05-12T02:28:54.518Z,7.50
2018-05-12T02:30:01.239Z,7.80
2018-05-12T02:31:08.051Z,8.40
2018-05-12T02:32:14.830Z,7.80
2018-05-12T02:33:21.555Z,7.60
2018-05-12T02:34:28.335Z,7.90
2018-05-12T02:35:35.067Z,8.60
2018-05-12T02:36:41.782Z,7.70
2018-05-12T02:37:48.606Z,7.90
2018-05-12T02:38:55.379Z,8.00
2018-05-12T02:40:02.130Z,7.40
2018-05-12T02:41:09.139Z,7.80
2018-05-12T02:42:15.860Z,7.60
2018-05-12T02:43:22.627Z,8.00
2018-05-12T02:44:29.338Z,7.70
2018-05-12T02:45:36.140Z,8.30
2018-05-12T02:46:42.858Z,7.80
2018-05-12T02:47:49.695Z,7.80
2018-05-12T02:48:56.410Z,7.70
2018-05-12T02:50:03.219Z,8.30
2018-05-12T02:51:09.972Z,8.30
2018-05-12T02:52:16.711Z,8.00
2018-05-12T02:53:23.455Z,8.60
2018-05-12T02:54:30.292Z,8.60
2018-05-12T02:55:36.995Z,8.00
2018-05-12T02:56:43.851Z,8.20
2018-05-12T02:57:50.745Z,8.00
2018-05-12T02:58:57.488Z,7.80
2018-05-12T03:00:04.371Z,9.20
2018-05-12T03:01:11.159Z,8.60
2018-05-12T03:02:17.882Z,8.40
2018-05-12T03:03:24.631Z,8.90
2018-05-12T03:04:31.375Z,9.10
2018-05-12T03:05:38.252Z,9.10
2018-05-12T03:06:45.063Z,8.50
2018-05-12T03:07:51.838Z,8.50
2018-05-12T03:08:58.655Z,8.70
2018-05-12T03:10:05.409Z,8.20
2018-05-12T03:11:12.176Z,8.60
2018-05-12T03:12:18.899Z,8.90
2018-05-12T03:13:25.735Z,8.60
2018-05-12T03:14:32.487Z,7.50
2018-05-12T03:15:39.230Z,8.50
2018-05-12T03:16:45.955Z,7.80
2018-05-12T03:17:52.795Z,8.20
2018-05-12T03:18:59.614Z,8.50
2018-05-12T03:20:06.369Z,7.70
2018-05-12T03:21:13.163Z,7.70
2018-05-12T03:22:19.891Z,8.60
2018-05-12T03:23:26.643Z,8.90
2018-05-12T03:24:33.366Z,8.90
2018-05-12T03:25:40.187Z,8.10
2018-05-12T03:26:46.890Z,8.80
2018-05-12T03:27:53.615Z,8.30
2018-05-12T03:29:00.378Z,8.30
2018-05-12T03:30:07.234Z,7.80
2018-05-12T03:31:13.955Z,7.70
2018-05-12T03:32:20.703Z,8.20
2018-05-12T03:33:27.454Z,8.30
2018-05-12T03:34:34.158Z,7.90
2018-05-12T03:35:40.959Z,8.40
2018-05-12T03:36:47.674Z,8.00
2018-05-12T03:37:54.422Z,8.00
2018-05-12T03:39:01.182Z,7.70
2018-05-12T03:40:08.236Z,9.00
2018-05-12T03:41:14.979Z,8.30
2018-05-12T03:42:21.682Z,8.50
2018-05-12T03:43:28.500Z,8.30
2018-05-12T03:44:35.239Z,8.60
2018-05-12T03:45:41.951Z,8.80
2018-05-12T03:46:48.699Z,9.00
2018-05-12T03:47:55.415Z,9.20
2018-05-12T03:49:02.263Z,8.50
2018-05-12T03:50:08.998Z,8.40
2018-05-12T03:51:15.717Z,8.40
2018-05-12T03:52:22.466Z,8.90
2018-05-12T03:53:29.327Z,8.40
2018-05-12T03:54:36.065Z,8.10
2018-05-12T03:55:42.821Z,8.50
2018-05-12T03:56:49.555Z,9.10
2018-05-12T03:57:56.387Z,8.50
2018-05-12T03:59:03.138Z,9.10
2018-05-12T04:00:09.907Z,8.60
2018-05-12T04:01:16.902Z,8.60
2018-05-12T04:02:23.642Z,9.00
2018-05-12T04:03:30.379Z,9.30
2018-05-12T04:04:37.114Z,9.30
2018-05-12T04:05:44.614Z,9.60
2018-05-12T04:06:54.934Z,9.70
2018-05-12T04:08:07.571Z,9.40
2018-05-12T04:09:16.330Z,8.90
2018-05-12T04:10:23.074Z,9.70
2018-05-12T04:11:29.944Z,8.70
2018-05-12T04:12:36.924Z,9.30
2018-05-12T04:13:43.827Z,8.50
2018-05-12T04:14:50.639Z,9.30
2018-05-12T04:15:57.370Z,9.80
2018-05-12T04:17:04.098Z,8.30
2018-05-12T04:18:10.859Z,9.20
2018-05-12T04:19:17.726Z,9.00
2018-05-12T04:20:24.451Z,9.40
2018-05-12T04:21:31.197Z,9.10
2018-05-12T04:22:37.931Z,9.30
2018-05-12T04:23:44.791Z,9.40
2018-05-12T04:24:51.563Z,9.70
2018-05-12T04:25:58.289Z,9.00
2018-05-12T04:27:05.022Z,9.90
2018-05-12T04:28:11.735Z,9.10
2018-05-12T04:29:18.607Z,9.50
2018-05-12T04:30:25.357Z,9.90
2018-05-12T04:31:32.082Z,9.50
2018-05-12T04:32:38.793Z,9.50
2018-05-12T04:33:45.575Z,10.40
2018-05-12T04:34:52.326Z,9.00
2018-05-12T04:35:59.095Z,9.30
2018-05-12T04:37:05.823Z,9.60
2018-05-12T04:38:12.642Z,9.70
2018-05-12T04:39:19.390Z,9.90
2018-05-12T04:40:26.138Z,9.70
2018-05-12T04:41:32.858Z,9.70
2018-05-12T04:42:39.699Z,10.90
2018-05-12T04:43:46.392Z,10.20
2018-05-12T04:44:53.127Z,10.10
2018-05-12T04:45:59.835Z,9.20
2018-05-12T04:47:06.562Z,9.30
2018-05-12T04:48:13.277Z,10.00
2018-05-12T04:49:20.083Z,10.10
2018-05-12T04:50:26.771Z,10.40
2018-05-12T04:51:33.620Z,10.70
2018-05-12T04:52:40.354Z,10.50
2018-05-12T04:53:47.127Z,11.60
2018-05-12T04:54:53.848Z,11.00
2018-05-12T04:56:00.587Z,10.70
2018-05-12T04:57:07.363Z,9.80
2018-05-12T04:58:14.211Z,11.40
2018-05-12T04:59:20.982Z,10.90
2018-05-12T05:00:27.687Z,10.90
2018-05-12T05:01:34.480Z,10.70
2018-05-12T05:02:41.254Z,10.50
2018-05-12T05:03:47.930Z,10.80
2018-05-12T05:04:54.667Z,11.20
2018-05-12T05:06:01.379Z,10.80
2018-05-12T05:07:08.122Z,10.60
2018-05-12T05:08:15.195Z,11.10
2018-05-12T05:09:21.894Z,10.60
2018-05-12T05:10:28.622Z,10.00
2018-05-12T05:11:35.375Z,10.70
2018-05-12T05:12:42.075Z,10.40
2018-05-12T05:13:48.803Z,10.60
2018-05-12T05:14:55.553Z,11.60
2018-05-12T05:16:02.296Z,10.90
2018-05-12T05:17:09.052Z,10.80
2018-05-12T05:18:15.790Z,12.10
2018-05-12T05:19:22.537Z,11.40
2018-05-12T05:20:29.231Z,11.80
2018-05-12T05:21:35.905Z,10.90
2018-05-12T05:22:42.608Z,11.40
2018-05-12T05:23:49.371Z,11.90
2018-05-12T05:24:56.092Z,12.00
2018-05-12T05:26:02.769Z,12.10
2018-05-12T05:27:09.483Z,13.00
2018-05-12T05:28:16.177Z,11.60
2018-05-12T05:29:22.971Z,12.70
2018-05-12T05:30:29.729Z,13.40
2018-05-12T05:31:36.487Z,13.10
2018-05-12T05:32:43.183Z,13.10
2018-05-12T05:33:49.963Z,13.30
2018-05-12T05:34:56.698Z,13.60
2018-05-12T05:36:03.567Z,12.20
2018-05-12T05:37:10.277Z,12.70
2018-05-12T05:38:17.011Z,12.80
2018-05-12T05:39:23.737Z,13.30
2018-05-12T05:40:30.505Z,13.10
2018-05-12T05:41:37.317Z,12.80
2018-05-12T05:42:44.292Z,13.80
2018-05-12T05:43:50.979Z,13.00
2018-05-12T05:44:57.686Z,13.40
2018-05-12T05:46:04.390Z,13.40
2018-05-12T05:47:11.112Z,14.00
2018-05-12T05:48:17.792Z,12.70
2018-05-12T05:49:24.528Z,13.30
2018-05-12T05:50:31.278Z,13.00
2018-05-12T05:51:37.962Z,14.70
2018-05-12T05:52:44.675Z,13.70
2018-05-12T05:53:51.351Z,14.80
2018-05-12T05:54:58.093Z,15.10
2018-05-12T05:56:04.775Z,14.80
2018-05-12T05:57:11.735Z,14.80
2018-05-12T05:58:18.559Z,14.70
2018-05-12T05:59:25.324Z,15.20
2018-05-12T06:00:32.154Z,15.10
2018-05-12T06:01:38.876Z,14.30
2018-05-12T06:02:45.592Z,14.50
2018-05-12T06:03:52.286Z,13.90
2018-05-12T06:04:58.996Z,14.70
2018-05-12T06:06:05.864Z,15.00
2018-05-12T06:07:12.598Z,15.50
2018-05-12T06:08:19.325Z,15.20
2018-05-12T06:09:26.060Z,15.20
2018-05-12T06:10:32.843Z,15.20
2018-05-12T06:11:40.003Z,15.00
2018-05-12T06:12:46.712Z,15.50
2018-05-12T06:13:53.515Z,14.30
2018-05-12T06:15:00.243Z,14.70
2018-05-12T06:16:07.060Z,15.10
2018-05-12T06:17:13.747Z,15.50
2018-05-12T06:18:20.496Z,16.10
2018-05-12T06:19:27.259Z,15.40
2018-05-12T06:20:33.937Z,15.50
2018-05-12T06:21:42.008Z,15.70
2018-05-12T06:22:47.955Z,16.70
2018-05-12T06:23:54.634Z,16.60
2018-05-12T06:25:01.371Z,17.20
2018-05-12T06:26:08.098Z,16.00
2018-05-12T06:27:17.832Z,16.50
2018-05-12T06:28:26.508Z,16.50
2018-05-12T06:29:33.558Z,16.40
2018-05-12T06:30:40.270Z,17.70
2018-05-12T06:31:47.098Z,21.30
2018-05-12T06:32:54.148Z,20.10
2018-05-12T06:34:00.847Z,19.20
2018-05-12T06:35:07.577Z,19.90
2018-05-12T06:36:14.311Z,21.00
2018-05-12T06:37:21.094Z,18.50
2018-05-12T06:38:27.875Z,16.20
2018-05-12T06:39:34.623Z,17.10
2018-05-12T06:40:41.339Z,16.90
2018-05-12T06:41:48.070Z,17.90
2018-05-12T06:42:54.767Z,17.90
2018-05-12T06:44:01.483Z,18.50
2018-05-12T06:45:08.255Z,18.40
2018-05-12T06:46:14.938Z,19.00
2018-05-12T06:47:21.660Z,20.50
2018-05-12T06:48:28.400Z,18.80
2018-05-12T06:49:35.154Z,18.30
2018-05-12T06:50:41.940Z,19.20
2018-05-12T06:51:48.759Z,19.40
2018-05-12T06:52:55.464Z,19.60
2018-05-12T06:54:02.185Z,20.40
2018-05-12T06:55:09.012Z,20.40
2018-05-12T06:56:15.818Z,20.30
2018-05-12T06:57:22.537Z,20.80
2018-05-12T06:58:29.233Z,21.10
2018-05-12T06:59:35.931Z,20.60
2018-05-12T07:00:42.702Z,21.00
2018-05-12T07:01:49.456Z,20.60
2018-05-12T07:02:56.154Z,20.80
2018-05-12T07:04:02.867Z,20.90
2018-05-12T07:05:09.632Z,21.50
2018-05-12T07:06:16.422Z,21.00
2018-05-12T07:07:23.114Z,20.20
2018-05-12T07:08:29.926Z,19.80
2018-05-12T07:09:36.639Z,21.10
2018-05-12T07:10:43.342Z,21.00
2018-05-12T07:11:50.147Z,22.00
2018-05-12T07:12:56.835Z,21.50
2018-05-12T07:14:03.539Z,22.20
2018-05-12T07:15:10.281Z,21.50
2018-05-12T07:16:17.036Z,21.00
2018-05-12T07:17:23.726Z,21.50
2018-05-12T07:18:30.543Z,21.60
2018-05-12T07:19:37.244Z,21.30
2018-05-12T07:20:44.113Z,21.60
2018-05-12T07:21:51.027Z,20.50
2018-05-12T07:22:57.761Z,21.20
2018-05-12T07:24:04.512Z,19.90
2018-05-12T07:25:11.264Z,20.20
2018-05-12T07:26:18.047Z,22.00
2018-05-12T07:27:24.723Z,20.30
2018-05-12T07:28:31.458Z,20.80
2018-05-12T07:29:38.343Z,21.30
2018-05-12T07:30:45.258Z,21.70
2018-05-12T07:31:51.971Z,21.70
2018-05-12T07:32:58.671Z,22.00
2018-05-12T07:34:05.608Z,20.60
2018-05-12T07:35:12.334Z,22.30
2018-05-12T07:36:19.055Z,22.10
2018-05-12T07:37:25.772Z,21.90
2018-05-12T07:38:32.507Z,20.40
2018-05-12T07:39:39.280Z,20.30
2018-05-12T07:40:45.983Z,22.00
2018-05-12T07:41:52.815Z,22.50
2018-05-12T07:42:59.512Z,22.70
2018-05-12T07:44:06.323Z,22.80
2018-05-12T07:45:13.063Z,21.00
2018-05-12T07:46:19.806Z,21.10
2018-05-12T07:47:26.755Z,20.80
2018-05-12T07:48:33.501Z,19.80
2018-05-12T07:49:40.193Z,21.00
2018-05-12T07:50:46.931Z,20.70
2018-05-12T07:51:53.630Z,20.10
2018-05-12T07:53:00.331Z,21.50
2018-05-12T07:54:07.129Z,21.40
2018-05-12T07:55:13.868Z,20.20
2018-05-12T07:56:20.671Z,20.00
2018-05-12T07:57:27.363Z,20.10
2018-05-12T07:58:34.063Z,22.00
2018-05-12T07:59:40.832Z,21.30
2018-05-12T08:00:47.583Z,20.30
2018-05-12T08:01:54.315Z,20.70
2018-05-12T08:03:01.033Z,20.50
2018-05-12T08:04:07.755Z,19.90
2018-05-12T08:05:14.573Z,20.10
2018-05-12T08:06:21.283Z,20.00
2018-05-12T08:07:28.138Z,21.30
2018-05-12T08:08:34.844Z,20.30
2018-05-12T08:09:41.641Z,21.80
2018-05-12T08:10:48.391Z,20.40
2018-05-12T08:11:55.305Z,19.70
2018-05-12T08:13:02.079Z,22.10
2018-05-12T08:14:08.847Z,20.60
2018-05-12T08:15:15.590Z,20.30
2018-05-12T08:16:22.284Z,19.60
2018-05-12T08:17:29.130Z,19.50
2018-05-12T08:18:35.836Z,20.20
2018-05-12T08:19:42.535Z,19.50
2018-05-12T08:20:49.234Z,19.40
2018-05-12T08:21:56.007Z,19.00
2018-05-12T08:24:09.746Z,17.70
2018-05-12T08:25:16.495Z,18.50
2018-05-12T08:26:23.326Z,18.20
2018-05-12T08:27:30.068Z,16.40
2018-05-12T08:28:36.843Z,17.60
2018-05-12T08:29:43.692Z,17.70
2018-05-12T08:30:50.493Z,17.60
2018-05-12T08:31:57.240Z,17.90
2018-05-12T08:33:03.965Z,17.90
2018-05-12T08:34:10.758Z,16.60
2018-05-12T08:35:17.511Z,16.70
2018-05-12T08:36:24.262Z,15.20
2018-05-12T08:37:31.022Z,17.20
2018-05-12T08:38:37.852Z,17.90
2018-05-12T08:39:44.640Z,17.40
2018-05-12T08:40:51.420Z,16.70
2018-05-12T08:41:58.143Z,15.10
2018-05-12T08:43:04.922Z,14.70
2018-05-12T08:44:11.679Z,14.50
2018-05-12T08:45:18.412Z,14.20
2018-05-12T08:46:25.162Z,14.90
2018-05-12T08:47:32.016Z,15.70
2018-05-12T08:48:38.778Z,14.00
2018-05-12T08:49:45.512Z,14.30
2018-05-12T08:50:52.301Z,14.70
2018-05-12T08:51:59.071Z,12.70
2018-05-12T08:54:13.050Z,13.80
2018-05-12T08:55:19.788Z,14.60
2018-05-12T08:56:26.459Z,14.60
2018-05-12T08:57:33.127Z,14.90
2018-05-12T08:58:40.566Z,14.90
2018-05-12T08:59:47.252Z,14.10
2018-05-12T09:00:54.102Z,13.30
2018-05-12T09:02:00.879Z,12.90
2018-05-12T09:03:07.563Z,12.40
2018-05-12T09:04:14.362Z,11.40
2018-05-12T09:05:21.063Z,10.10
2018-05-12T09:06:27.994Z,9.90
2018-05-12T09:07:34.810Z,10.00
2018-05-12T09:08:41.508Z,11.00
2018-05-12T09:09:48.215Z,10.90
2018-05-12T09:10:54.931Z,11.90
2018-05-12T09:12:01.733Z,11.60
2018-05-12T09:13:08.430Z,11.30
2018-05-12T09:14:15.145Z,11.40
2018-05-12T09:15:21.852Z,11.00
2018-05-12T09:16:28.563Z,11.00
2018-05-12T09:17:35.309Z,10.20
2018-05-12T09:18:42.092Z,9.20
2018-05-12T09:19:48.768Z,8.20
2018-05-12T09:20:55.751Z,7.50
2018-05-12T09:22:02.549Z,7.00
2018-05-12T09:23:09.283Z,6.40
2018-05-12T09:24:16.034Z,6.10
2018-05-12T09:25:22.748Z,5.80
2018-05-12T09:26:29.470Z,5.90
2018-05-12T09:27:36.292Z,5.10
2018-05-12T09:28:43.047Z,5.40
2018-05-12T09:29:49.782Z,5.40
2018-05-12T09:30:56.527Z,4.70
2018-05-12T09:32:03.334Z,4.60
2018-05-12T09:33:10.083Z,4.50
2018-05-12T09:34:16.805Z,4.90
2018-05-12T09:35:23.542Z,4.20
2018-05-12T09:36:30.280Z,4.40
2018-05-12T09:37:37.060Z,4.30
2018-05-12T09:38:43.822Z,4.60
2018-05-12T09:39:50.648Z,3.80
2018-05-12T09:40:57.414Z,3.50
2018-05-12T09:42:04.163Z,3.80
2018-05-12T09:43:10.883Z,3.50
2018-05-12T09:44:17.634Z,4.00
2018-05-12T09:45:24.387Z,4.10
2018-05-12T09:46:31.095Z,4.40
2018-05-12T09:47:37.783Z,3.80
2018-05-12T09:48:44.590Z,4.50
2018-05-12T09:49:51.338Z,4.90
2018-05-12T09:50:58.083Z,5.20
2018-05-12T09:52:04.820Z,4.50
2018-05-12T09:53:11.526Z,5.00
2018-05-12T09:54:18.358Z,5.60
2018-05-12T09:55:25.082Z,4.30
2018-05-12T09:56:31.812Z,4.30
2018-05-12T09:57:38.562Z,5.10
2018-05-12T09:59:54.559Z,4.90
2018-05-12T10:01:01.407Z,4.30
2018-05-12T10:02:08.167Z,4.00
2018-05-12T10:03:14.892Z,4.40
2018-05-12T10:04:21.705Z,4.70
2018-05-12T10:05:28.419Z,5.20
2018-05-12T10:06:35.152Z,4.90
2018-05-12T10:07:42.311Z,4.50
2018-05-12T10:08:49.072Z,4.60
2018-05-12T10:09:55.779Z,4.10
2018-05-12T10:11:02.524Z,4.50
2018-05-12T10:12:09.274Z,4.10
2018-05-12T10:13:16.288Z,4.50
2018-05-12T10:14:23.079Z,4.80
2018-05-12T10:15:29.909Z,4.60
2018-05-12T10:16:36.902Z,4.50
2018-05-12T10:17:43.671Z,4.90
2018-05-12T10:18:50.479Z,4.80
2018-05-12T10:19:57.331Z,4.10
2018-05-12T10:21:04.127Z,4.40
2018-05-12T10:22:10.887Z,4.20
2018-05-12T10:23:17.627Z,3.90
2018-05-12T10:24:24.434Z,4.50
2018-05-12T10:25:31.162Z,3.90
2018-05-12T10:26:37.948Z,3.90
2018-05-12T10:27:44.666Z,4.60
2018-05-12T10:28:51.656Z,4.10
2018-05-12T10:29:58.403Z,4.10
2018-05-12T10:31:05.163Z,4.70
2018-05-12T10:32:11.963Z,4.60
2018-05-12T10:33:18.726Z,4.30
2018-05-12T10:34:25.513Z,4.90
2018-05-12T10:35:32.380Z,4.40
2018-05-12T10:36:39.131Z,4.20
2018-05-12T10:37:45.968Z,4.80
2018-05-12T10:38:52.883Z,4.20
2018-05-12T10:39:59.635Z,4.60
2018-05-12T10:41:06.428Z,4.40
2018-05-12T10:42:13.240Z,4.30
2018-05-12T10:43:19.975Z,4.50
2018-05-12T10:44:26.759Z,3.90
2018-05-12T10:45:33.513Z,4.80
2018-05-12T10:46:40.339Z,4.10
2018-05-12T10:47:47.083Z,3.80
2018-05-12T10:48:53.832Z,3.90
2018-05-12T10:50:00.603Z,3.40
2018-05-12T10:51:07.443Z,4.60
2018-05-12T10:52:14.248Z,4.40
2018-05-12T10:53:21.020Z,4.10
2018-05-12T10:54:27.826Z,4.20
2018-05-12T10:55:34.549Z,4.80
2018-05-12T10:56:41.346Z,4.60
2018-05-12T10:57:48.083Z,4.70
2018-05-12T10:58:54.927Z,4.00
2018-05-12T11:00:01.745Z,4.50
2018-05-12T11:01:08.726Z,4.30
2018-05-12T11:02:15.495Z,4.20
2018-05-12T11:03:22.247Z,4.50
2018-05-12T11:04:28.953Z,4.70
2018-05-12T11:05:35.751Z,4.80
2018-05-12T11:06:42.510Z,4.70
2018-05-12T11:07:49.223Z,5.10
2018-05-12T11:08:55.963Z,4.50
2018-05-12T11:10:02.703Z,5.30
2018-05-12T11:11:09.509Z,5.00
2018-05-12T11:12:16.254Z,4.60
2018-05-12T11:13:22.988Z,4.70
2018-05-12T11:14:29.737Z,4.30
2018-05-12T11:15:36.477Z,5.00
2018-05-12T11:16:43.248Z,4.70
2018-05-12T11:17:50.167Z,4.80
2018-05-12T11:18:57.042Z,5.60
2018-05-12T11:20:03.811Z,5.10
2018-05-12T11:21:10.594Z,4.50
2018-05-12T11:22:17.390Z,4.30
2018-05-12T11:23:24.143Z,4.30
2018-05-12T11:24:30.891Z,4.30
2018-05-12T11:25:37.663Z,4.40
2018-05-12T11:26:44.481Z,4.30
2018-05-12T11:27:51.237Z,4.00
2018-05-12T11:28:57.985Z,4.20
2018-05-12T11:30:04.830Z,4.60
2018-05-12T11:31:11.581Z,4.40
2018-05-12T11:32:18.345Z,4.00
2018-05-12T11:33:25.160Z,4.70
2018-05-12T11:34:31.907Z,5.20
2018-05-12T11:35:38.623Z,4.90
2018-05-12T11:36:45.475Z,5.20
2018-05-12T11:37:52.206Z,5.20
2018-05-12T11:38:59.027Z,4.80
2018-05-12T11:40:05.895Z,5.00
2018-05-12T11:41:12.622Z,5.70
2018-05-12T11:42:19.404Z,4.90
2018-05-12T11:43:26.178Z,4.90
2018-05-12T11:44:33.056Z,5.20
2018-05-12T11:45:39.714Z,5.00
2018-05-12T11:46:46.504Z,5.20
2018-05-12T11:47:53.246Z,4.90
2018-05-12T11:49:00.050Z,5.50
2018-05-12T11:50:06.799Z,5.70
2018-05-12T11:51:13.603Z,5.50
2018-05-12T11:52:20.369Z,5.00
2018-05-12T11:53:27.151Z,5.10
2018-05-12T11:54:33.879Z,4.80
2018-05-12T11:55:40.603Z,5.30
2018-05-12T11:56:47.412Z,4.80
2018-05-12T11:57:54.227Z,4.90
2018-05-12T11:59:01.080Z,4.50
2018-05-12T12:00:07.850Z,5.60
2018-05-12T12:01:14.667Z,5.70
2018-05-12T12:02:21.513Z,5.50
2018-05-12T12:03:28.212Z,5.60
2018-05-12T12:04:34.935Z,5.90
2018-05-12T12:05:41.753Z,5.90
2018-05-12T12:06:48.527Z,6.60
2018-05-12T12:07:55.270Z,5.70
2018-05-12T12:09:03.766Z,5.80
2018-05-12T12:12:22.472Z,5.80
2018-05-12T12:13:29.299Z,5.80
2018-05-12T12:14:36.073Z,5.90
2018-05-12T12:15:42.891Z,6.70
2018-05-12T12:16:49.772Z,5.90
2018-05-12T12:17:56.515Z,5.40
2018-05-12T12:19:03.356Z,5.50
2018-05-12T12:20:10.226Z,6.20
2018-05-12T12:21:17.014Z,6.00
2018-05-12T12:22:23.869Z,6.00
2018-05-12T12:23:30.667Z,5.90
2018-05-12T12:24:37.422Z,5.70
2018-05-12T12:25:44.135Z,6.10
2018-05-12T12:26:50.891Z,6.00
2018-05-12T12:27:57.758Z,6.10
2018-05-12T12:29:04.543Z,6.40
2018-05-12T12:30:11.540Z,6.20
2018-05-12T12:31:18.315Z,5.90
2018-05-12T12:32:25.058Z,5.30
2018-05-12T12:33:31.859Z,5.70
2018-05-12T12:34:38.673Z,6.10
2018-05-12T12:35:45.551Z,5.90
2018-05-12T12:36:52.442Z,5.70
2018-05-12T12:37:59.183Z,6.50
2018-05-12T12:39:05.979Z,6.60
2018-05-12T12:40:12.941Z,6.10
2018-05-12T12:41:19.716Z,6.40
2018-05-12T12:42:26.670Z,7.00
2018-05-12T12:43:33.416Z,8.00
2018-05-12T12:44:40.136Z,8.10
2018-05-12T12:45:46.900Z,8.00
2018-05-12T12:46:53.719Z,6.50
2018-05-12T12:48:00.484Z,6.50
2018-05-12T12:49:07.272Z,7.10
2018-05-12T12:50:14.117Z,7.10
2018-05-12T12:51:20.879Z,7.50
2018-05-12T12:52:27.722Z,7.40
2018-05-12T12:53:34.525Z,7.50
2018-05-12T12:54:41.291Z,6.90
2018-05-12T12:55:48.052Z,6.30
2018-05-12T12:56:55.040Z,7.50
2018-05-12T12:58:01.842Z,7.90
2018-05-12T12:59:08.676Z,8.50
2018-05-12T13:00:15.447Z,7.80
2018-05-12T13:01:22.174Z,7.70
2018-05-12T13:02:28.912Z,7.10
2018-05-12T13:03:35.656Z,7.00
2018-05-12T13:04:42.528Z,6.60
2018-05-12T13:05:49.408Z,7.30
2018-05-12T13:06:56.295Z,6.90
2018-05-12T13:08:03.027Z,8.10
2018-05-12T13:09:09.791Z,7.30
2018-05-12T13:10:16.503Z,6.00
2018-05-12T13:11:23.222Z,5.80
2018-05-12T13:12:30.025Z,6.40
2018-05-12T13:13:36.749Z,7.60
2018-05-12T13:14:43.559Z,8.70
2018-05-12T13:15:50.279Z,8.60
2018-05-12T13:16:57.107Z,8.10
2018-05-12T13:18:03.805Z,7.80
2018-05-12T13:19:10.569Z,8.60
2018-05-12T13:20:17.327Z,8.60
2018-05-12T13:21:24.188Z,8.40
2018-05-12T13:22:31.264Z,8.30
2018-05-12T13:23:38.015Z,8.30
2018-05-12T13:24:44.773Z,8.10
2018-05-12T13:25:51.864Z,8.20
2018-05-12T13:26:58.216Z,8.10
2018-05-12T13:28:05.090Z,8.80
2018-05-12T13:29:12.015Z,8.00
2018-05-12T13:30:18.798Z,8.10
2018-05-12T13:31:25.547Z,8.30
2018-05-12T13:32:32.383Z,7.40
2018-05-12T13:33:39.128Z,7.90
2018-05-12T13:34:46.894Z,7.80
2018-05-12T13:35:52.711Z,7.70
2018-05-12T13:36:59.562Z,8.30
2018-05-12T13:38:06.291Z,7.80
2018-05-12T13:39:13.107Z,8.60
2018-05-12T13:40:20.048Z,8.60
2018-05-12T13:41:26.744Z,7.90
2018-05-12T13:42:33.566Z,7.60
2018-05-12T13:43:40.442Z,8.50
2018-05-12T13:44:47.320Z,8.40
2018-05-12T13:45:54.370Z,7.80
2018-05-12T13:47:01.163Z,8.80
2018-05-12T13:48:07.842Z,9.40
2018-05-12T13:49:14.630Z,8.50
2018-05-12T13:50:21.420Z,7.70
2018-05-12T13:51:28.213Z,7.80
2018-05-12T13:52:34.980Z,8.50
2018-05-12T13:53:41.767Z,7.80
2018-05-12T13:54:49.835Z,7.80
2018-05-12T13:55:55.871Z,8.20
2018-05-12T13:57:02.663Z,9.00
2018-05-12T13:58:09.610Z,8.40
2018-05-12T13:59:16.399Z,8.10
2018-05-12T14:00:23.301Z,8.10
2018-05-12T14:01:30.141Z,8.40
2018-05-12T14:02:36.936Z,8.30
2018-05-12T14:03:44.148Z,8.70
2018-05-12T14:04:51.035Z,8.20
2018-05-12T14:05:58.269Z,7.40
2018-05-12T14:07:05.083Z,8.10
2018-05-12T14:08:12.015Z,9.00
2018-05-12T14:09:19.170Z,8.20
2018-05-12T14:10:25.970Z,7.70
2018-05-12T14:11:32.899Z,7.30
2018-05-12T14:12:39.895Z,7.80
2018-05-12T14:13:46.683Z,8.40
2018-05-12T14:14:53.443Z,7.90
2018-05-12T14:16:00.717Z,8.00
2018-05-12T14:17:06.939Z,8.60
2018-05-12T14:18:13.825Z,8.40
2018-05-12T14:19:20.881Z,8.50
2018-05-12T14:20:27.639Z,8.20
2018-05-12T14:21:34.449Z,8.00
2018-05-12T14:22:41.242Z,8.10
2018-05-12T14:23:48.048Z,7.50
2018-05-12T14:24:54.775Z,7.80
2018-05-12T14:26:01.763Z,7.60
2018-05-12T14:27:08.556Z,7.90
2018-05-12T14:28:15.342Z,7.90
2018-05-12T14:29:22.087Z,8.30
2018-05-12T14:30:28.931Z,8.10
2018-05-12T14:31:35.718Z,8.00
2018-05-12T14:32:42.480Z,7.80
2018-05-12T14:33:49.223Z,8.00
2018-05-12T14:34:56.021Z,7.90
2018-05-12T14:36:02.758Z,8.50
2018-05-12T14:37:09.548Z,8.60
2018-05-12T14:38:16.271Z,8.80
2018-05-12T14:39:23.199Z,9.30
2018-05-12T14:40:29.840Z,8.40
2018-05-12T14:41:36.710Z,7.40
2018-05-12T14:42:43.628Z,7.80
2018-05-12T14:43:50.368Z,7.50
2018-05-12T14:44:57.117Z,8.10
2018-05-12T14:46:04.000Z,7.80